Time;durP1;ratioP1;P1;durP2;ratioP2;P2;SDS_P1;SDS_P2;PMS_P1;PMS_P2;Temp;Humidity;BMP_temperature;BMP_pressure;BME280_temperature;BME280_humidity;BME280_pressure;Samples;Min_cycle;Max_cycle;Signal;HPM_P1;HPM_P2
2022/08/25 00:00:03;;;;;;;8.45;7.85;;;;;;;;;;1656855;29;22548;-64
2022/08/25 00:00:56;;;;;;;7.53;7.03;;;;;;;;;;1657027;29;21622;-64
2022/08/25 00:01:51;;;;;;;8.52;7.70;;;;;;;;;;1654707;29;22012;-65
2022/08/25 00:02:43;;;;;;;8.48;7.93;;;;;;;;;;1655959;29;21816;-65
2022/08/25 00:03:34;;;;;;;7.80;7.30;;;;;;;;;;1655400;29;21685;-64
2022/08/25 00:04:29;;;;;;;7.78;7.15;;;;;;;;;;1656470;29;21696;-64
2022/08/25 00:05:20;;;;;;;7.55;6.95;;;;;;;;;;1659966;29;21586;-65
2022/08/25 00:06:12;;;;;;;9.02;8.13;;;;;;;;;;1658652;29;21757;-65
2022/08/25 00:07:06;;;;;;;8.20;7.65;;;;;;;;;;1651048;29;21617;-65
2022/08/25 00:07:57;;;;;;;8.65;7.82;;;;;;;;;;1653040;29;21715;-64
2022/08/25 00:08:50;;;;;;;7.82;7.15;;;;;;;;;;1658107;29;21856;-65
2022/08/25 00:09:41;;;;;;;7.60;7.10;;;;;;;;;;1656144;29;21649;-64
2022/08/25 00:10:37;;;;;;;8.70;8.10;;;;;;;;;;1654808;29;22540;-64
2022/08/25 00:11:32;;;;;;;7.30;6.85;;;;;;;;;;1650915;29;21613;-64
2022/08/25 00:12:25;;;;;;;8.32;7.60;;;;;;;;;;1650507;29;22499;-64
2022/08/25 00:13:16;;;;;;;7.55;7.05;;;;;;;;;;1654159;29;21634;-64
2022/08/25 00:14:11;;;;;;;8.45;7.75;;;;;;;;;;1654932;29;21632;-64
2022/08/25 00:15:04;;;;;;;7.95;7.30;;;;;;;;;;1649797;29;21777;-64
2022/08/25 00:15:56;;;;;;;7.70;7.20;;;;;;;;;;1651580;29;21604;-64
2022/08/25 00:16:48;;;;;;;7.57;7.00;;;;;;;;;;1652591;29;21727;-63
2022/08/25 00:17:40;;;;;;;8.15;7.38;;;;;;;;;;1656849;29;22255;-63
2022/08/25 00:18:32;;;;;;;7.40;6.90;;;;;;;;;;1657443;29;21714;-64
2022/08/25 00:19:27;;;;;;;7.72;7.20;;;;;;;;;;1654860;29;21755;-63
2022/08/25 00:20:18;;;;;;;8.23;7.50;;;;;;;;;;1656286;29;21595;-64
2022/08/25 00:21:11;;;;;;;7.07;6.68;;;;;;;;;;1654643;29;22567;-64
2022/08/25 00:22:06;;;;;;;6.95;6.30;;;;;;;;;;1654558;29;21582;-64
2022/08/25 00:22:59;;;;;;;7.72;7.22;;;;;;;;;;1651626;29;21624;-64
2022/08/25 00:23:50;;;;;;;7.80;7.13;;;;;;;;;;1658204;29;22706;-64
2022/08/25 00:24:43;;;;;;;6.90;6.35;;;;;;;;;;1658192;29;21596;-64
2022/08/25 00:25:35;;;;;;;7.30;6.68;;;;;;;;;;1657400;29;22745;-64
2022/08/25 00:26:27;;;;;;;7.40;6.90;;;;;;;;;;1658529;29;21716;-63
2022/08/25 00:27:19;;;;;;;7.10;6.70;;;;;;;;;;1658624;29;21593;-63
2022/08/25 00:28:11;;;;;;;8.95;6.30;;;;;;;;;;1656995;29;21753;-65
2022/08/25 00:29:02;;;;;;;6.97;6.50;;;;;;;;;;1653758;29;21689;-64
2022/08/25 00:29:54;;;;;;;6.85;6.45;;;;;;;;;;1655110;29;22460;-64
2022/08/25 00:30:46;;;;;;;7.70;7.07;;;;;;;;;;1660718;29;21582;-64
2022/08/25 00:31:40;;;;;;;6.97;6.47;;;;;;;;;;1657992;29;21622;-64
2022/08/25 00:32:31;;;;;;;6.97;6.43;;;;;;;;;;1654744;29;21724;-64
2022/08/25 00:33:25;;;;;;;6.85;6.25;;;;;;;;;;1658377;29;22264;-64
2022/08/25 00:34:19;;;;;;;7.03;6.60;;;;;;;;;;1659879;29;22256;-64
2022/08/25 00:35:11;;;;;;;7.30;6.80;;;;;;;;;;1656642;29;22140;-64
2022/08/25 00:36:03;;;;;;;6.80;6.22;;;;;;;;;;1655447;29;23329;-64
2022/08/25 00:36:56;;;;;;;7.30;6.72;;;;;;;;;;1656027;29;21714;-64
2022/08/25 00:37:47;;;;;;;7.38;6.45;;;;;;;;;;1656648;29;22684;-64
2022/08/25 00:38:39;;;;;;;7.15;6.50;;;;;;;;;;1656052;29;21569;-64
2022/08/25 00:39:31;;;;;;;7.18;6.60;;;;;;;;;;1658391;29;21609;-64
2022/08/25 00:40:24;;;;;;;6.30;5.88;;;;;;;;;;1656723;29;21555;-64
2022/08/25 00:41:20;;;;;;;6.10;5.70;;;;;;;;;;1655791;29;21606;-64
2022/08/25 00:42:13;;;;;;;7.03;6.53;;;;;;;;;;1657997;29;21742;-64
2022/08/25 00:43:05;;;;;;;6.68;6.28;;;;;;;;;;1654271;29;21685;-64
2022/08/25 00:44:01;;;;;;;6.90;6.38;;;;;;;;;;1655194;29;22542;-64
2022/08/25 00:44:53;;;;;;;6.68;6.18;;;;;;;;;;1657047;29;21755;-64
2022/08/25 00:45:45;;;;;;;6.70;6.07;;;;;;;;;;1650380;29;21733;-64
2022/08/25 00:46:47;;;;;;;10.13;6.25;;;;;;;;;;1655911;29;22489;-64
2022/08/25 00:47:40;;;;;;;7.43;6.90;;;;;;;;;;1656970;29;21672;-64
2022/08/25 00:48:31;;;;;;;6.60;6.05;;;;;;;;;;1657350;29;22565;-64
2022/08/25 00:49:27;;;;;;;6.03;5.63;;;;;;;;;;1657207;29;21940;-64
2022/08/25 00:50:19;;;;;;;6.60;6.10;;;;;;;;;;1659398;29;21715;-64
2022/08/25 00:51:16;;;;;;;6.20;5.85;;;;;;;;;;1655107;29;21931;-64
2022/08/25 00:52:12;;;;;;;8.07;6.05;;;;;;;;;;1657152;29;21648;-64
2022/08/25 00:53:05;;;;;;;6.65;5.95;;;;;;;;;;1655566;29;22501;-63
2022/08/25 00:53:57;;;;;;;7.45;6.07;;;;;;;;;;1653576;29;21642;-63
2022/08/25 00:54:54;;;;;;;6.05;5.65;;;;;;;;;;1654875;29;21766;-65
2022/08/25 00:55:46;;;;;;;6.03;5.53;;;;;;;;;;1657005;29;22204;-64
2022/08/25 00:56:40;;;;;;;6.50;6.05;;;;;;;;;;1655878;29;21734;-64
2022/08/25 00:57:36;;;;;;;6.35;5.55;;;;;;;;;;1654654;29;21729;-64
2022/08/25 00:58:29;;;;;;;6.82;6.32;;;;;;;;;;1656336;29;22003;-64
2022/08/25 00:59:23;;;;;;;6.43;6.00;;;;;;;;;;1656941;29;21909;-64
2022/08/25 01:00:18;;;;;;;6.18;5.78;;;;;;;;;;1657855;29;21602;-64
2022/08/25 01:01:11;;;;;;;6.35;5.85;;;;;;;;;;1655479;29;21765;-64
2022/08/25 01:02:05;;;;;;;6.20;5.60;;;;;;;;;;1655354;29;21719;-64
2022/08/25 01:02:57;;;;;;;6.75;6.25;;;;;;;;;;1652655;29;21709;-64
2022/08/25 01:03:49;;;;;;;6.88;6.30;;;;;;;;;;1654567;29;22361;-65
2022/08/25 01:04:42;;;;;;;6.32;5.85;;;;;;;;;;1656681;29;22409;-64
2022/08/25 01:05:34;;;;;;;6.20;5.70;;;;;;;;;;1656375;29;22055;-64
2022/08/25 01:06:28;;;;;;;5.82;5.53;;;;;;;;;;1656154;29;21893;-64
2022/08/25 01:07:21;;;;;;;5.93;5.53;;;;;;;;;;1655879;29;22344;-64
2022/08/25 01:08:20;;;;;;;6.25;5.75;;;;;;;;;;1654579;29;21774;-64
2022/08/25 01:09:12;;;;;;;8.63;5.55;;;;;;;;;;1652636;29;21608;-64
2022/08/25 01:10:07;;;;;;;6.50;5.72;;;;;;;;;;1655366;29;21592;-64
2022/08/25 01:11:06;;;;;;;6.40;5.80;;;;;;;;;;1653425;29;21610;-63
2022/08/25 01:12:00;;;;;;;6.40;5.65;;;;;;;;;;1652900;29;21871;-64
2022/08/25 01:12:53;;;;;;;6.03;5.57;;;;;;;;;;1655362;29;21606;-64
2022/08/25 01:13:49;;;;;;;5.78;5.28;;;;;;;;;;1653099;29;21791;-64
2022/08/25 01:14:44;;;;;;;7.90;5.90;;;;;;;;;;1653344;29;21726;-64
2022/08/25 01:15:37;;;;;;;5.88;5.38;;;;;;;;;;1659297;29;21608;-65
2022/08/25 01:16:28;;;;;;;7.13;5.53;;;;;;;;;;1653989;29;21982;-64
2022/08/25 01:17:20;;;;;;;5.88;5.25;;;;;;;;;;1656410;29;21818;-65
2022/08/25 01:18:12;;;;;;;7.15;5.35;;;;;;;;;;1655800;29;21614;-64
2022/08/25 01:19:07;;;;;;;5.18;4.88;;;;;;;;;;1647717;29;21655;-64
2022/08/25 01:19:58;;;;;;;6.65;6.18;;;;;;;;;;1648644;29;21668;-64
2022/08/25 01:20:52;;;;;;;6.05;5.55;;;;;;;;;;1653737;29;22642;-64
2022/08/25 01:21:48;;;;;;;6.25;5.75;;;;;;;;;;1654716;29;21664;-64
2022/08/25 01:22:40;;;;;;;5.65;5.15;;;;;;;;;;1655477;29;21863;-64
2022/08/25 01:23:31;;;;;;;6.25;5.75;;;;;;;;;;1653561;29;21766;-64
2022/08/25 01:24:37;;;;;;;5.88;5.47;;;;;;;;;;1653504;29;21614;-64
2022/08/25 01:25:42;;;;;;;8.98;5.63;;;;;;;;;;1654358;29;21679;-64
2022/08/25 01:26:35;;;;;;;5.88;5.20;;;;;;;;;;1654634;29;22461;-64
2022/08/25 01:27:26;;;;;;;6.30;5.45;;;;;;;;;;1655633;29;21617;-64
2022/08/25 01:28:20;;;;;;;5.30;4.90;;;;;;;;;;1651559;29;21634;-64
2022/08/25 01:29:20;;;;;;;7.75;5.20;;;;;;;;;;1656806;29;22094;-64
2022/08/25 01:30:13;;;;;;;5.25;4.75;;;;;;;;;;1656191;29;22500;-64
2022/08/25 01:31:04;;;;;;;5.32;4.85;;;;;;;;;;1656589;29;22672;-64
2022/08/25 01:31:59;;;;;;;5.38;4.82;;;;;;;;;;1655318;29;22145;-64
2022/08/25 01:32:50;;;;;;;7.10;5.20;;;;;;;;;;1654149;29;22068;-64
2022/08/25 01:33:42;;;;;;;6.22;5.25;;;;;;;;;;1655492;29;21631;-64
2022/08/25 01:34:42;;;;;;;9.50;5.03;;;;;;;;;;1656584;29;21977;-64
2022/08/25 01:35:34;;;;;;;6.90;6.00;;;;;;;;;;1655957;29;22464;-64
2022/08/25 01:36:29;;;;;;;5.80;5.40;;;;;;;;;;1658284;29;21784;-64
2022/08/25 01:37:21;;;;;;;5.18;4.78;;;;;;;;;;1658779;29;21676;-64
2022/08/25 01:38:13;;;;;;;6.18;5.57;;;;;;;;;;1654792;29;21725;-64
2022/08/25 01:39:05;;;;;;;7.30;5.10;;;;;;;;;;1656276;29;22164;-64
2022/08/25 01:39:57;;;;;;;5.72;5.30;;;;;;;;;;1657396;29;21904;-64
2022/08/25 01:40:48;;;;;;;6.32;5.43;;;;;;;;;;1654356;29;22395;-64
2022/08/25 01:41:54;;;;;;;6.18;4.65;;;;;;;;;;1656976;29;22548;-64
2022/08/25 01:42:53;;;;;;;5.18;4.50;;;;;;;;;;1656195;29;21644;-64
2022/08/25 01:43:45;;;;;;;8.30;4.90;;;;;;;;;;1655099;29;21902;-64
2022/08/25 01:44:41;;;;;;;5.53;5.13;;;;;;;;;;1656824;29;21635;-64
2022/08/25 01:45:33;;;;;;;7.35;5.25;;;;;;;;;;1657959;29;22440;-64
2022/08/25 01:46:24;;;;;;;5.13;4.75;;;;;;;;;;1655550;29;21649;-64
2022/08/25 01:47:17;;;;;;;5.18;4.78;;;;;;;;;;1656874;29;22069;-64
2022/08/25 01:48:09;;;;;;;5.07;4.78;;;;;;;;;;1656242;29;21915;-63
2022/08/25 01:49:02;;;;;;;6.15;5.18;;;;;;;;;;1654408;29;22153;-64
2022/08/25 01:49:53;;;;;;;5.57;5.13;;;;;;;;;;1656807;29;22381;-64
2022/08/25 01:50:46;;;;;;;7.38;4.80;;;;;;;;;;1656753;29;22110;-64
2022/08/25 01:51:44;;;;;;;7.88;5.30;;;;;;;;;;1655762;29;22622;-64
2022/08/25 01:52:50;;;;;;;5.05;4.75;;;;;;;;;;1658714;29;22039;-65
2022/08/25 01:53:42;;;;;;;5.00;4.60;;;;;;;;;;1653961;29;21679;-64
2022/08/25 01:54:35;;;;;;;5.65;4.60;;;;;;;;;;1656819;29;21813;-64
2022/08/25 01:55:26;;;;;;;6.25;5.13;;;;;;;;;;1657803;29;21709;-64
2022/08/25 01:56:19;;;;;;;5.38;4.95;;;;;;;;;;1650977;29;21727;-64
2022/08/25 01:57:10;;;;;;;7.25;5.10;;;;;;;;;;1651377;29;22642;-64
2022/08/25 01:58:02;;;;;;;5.25;4.95;;;;;;;;;;1657157;29;21881;-65
2022/08/25 01:58:53;;;;;;;4.80;4.38;;;;;;;;;;1656901;29;22192;-64
2022/08/25 01:59:46;;;;;;;6.32;4.95;;;;;;;;;;1655222;29;22023;-64
2022/08/25 02:00:44;;;;;;;5.30;4.82;;;;;;;;;;1657637;29;21634;-64
2022/08/25 02:01:36;;;;;;;11.93;5.25;;;;;;;;;;1658698;29;21769;-64
2022/08/25 02:02:27;;;;;;;4.90;4.57;;;;;;;;;;1657307;29;21918;-63
2022/08/25 02:03:19;;;;;;;5.90;5.10;;;;;;;;;;1654711;29;21611;-64
2022/08/25 02:04:11;;;;;;;5.47;4.93;;;;;;;;;;1652760;29;22377;-64
2022/08/25 02:05:04;;;;;;;5.30;5.00;;;;;;;;;;1657042;29;21606;-64
2022/08/25 02:05:57;;;;;;;4.80;4.47;;;;;;;;;;1657731;29;21802;-64
2022/08/25 02:06:50;;;;;;;5.10;4.72;;;;;;;;;;1656654;29;21926;-64
2022/08/25 02:07:42;;;;;;;5.00;4.70;;;;;;;;;;1655625;29;21601;-63
2022/08/25 02:08:35;;;;;;;5.47;5.03;;;;;;;;;;1656869;29;21620;-64
2022/08/25 02:09:26;;;;;;;4.90;4.60;;;;;;;;;;1656637;29;21621;-64
2022/08/25 02:10:19;;;;;;;5.40;4.82;;;;;;;;;;1655504;29;21761;-64
2022/08/25 02:11:11;;;;;;;5.18;4.30;;;;;;;;;;1655532;29;22258;-64
2022/08/25 02:12:04;;;;;;;5.10;4.65;;;;;;;;;;1656321;29;22261;-64
2022/08/25 02:12:55;;;;;;;6.00;4.47;;;;;;;;;;1654231;29;21656;-64
2022/08/25 02:13:48;;;;;;;5.10;4.70;;;;;;;;;;1655705;29;21615;-64
2022/08/25 02:14:39;;;;;;;4.40;4.10;;;;;;;;;;1650408;29;22650;-63
2022/08/25 02:15:32;;;;;;;4.90;4.50;;;;;;;;;;1648577;29;22830;-63
2022/08/25 02:16:27;;;;;;;5.40;5.00;;;;;;;;;;1648592;29;21698;-63
2022/08/25 02:17:19;;;;;;;5.05;4.70;;;;;;;;;;1654985;29;22626;-63
2022/08/25 02:18:11;;;;;;;5.07;4.65;;;;;;;;;;1655872;29;21631;-63
2022/08/25 02:19:05;;;;;;;6.25;4.40;;;;;;;;;;1654355;29;21691;-63
2022/08/25 02:19:56;;;;;;;5.22;4.85;;;;;;;;;;1657732;29;21676;-64
2022/08/25 02:20:48;;;;;;;5.38;4.95;;;;;;;;;;1655831;29;21720;-64
2022/08/25 02:21:40;;;;;;;5.45;4.95;;;;;;;;;;1655688;29;21615;-64
2022/08/25 02:22:34;;;;;;;4.43;4.22;;;;;;;;;;1659090;29;21625;-64
2022/08/25 02:23:26;;;;;;;4.93;4.53;;;;;;;;;;1654965;29;21692;-63
2022/08/25 02:24:19;;;;;;;4.45;4.07;;;;;;;;;;1657047;29;21685;-63
2022/08/25 02:25:10;;;;;;;4.57;4.38;;;;;;;;;;1656628;29;22226;-63
2022/08/25 02:26:03;;;;;;;5.10;4.60;;;;;;;;;;1658680;29;21610;-65
2022/08/25 02:26:54;;;;;;;5.40;4.80;;;;;;;;;;1654336;29;21664;-64
2022/08/25 02:27:47;;;;;;;4.88;4.57;;;;;;;;;;1656761;29;22086;-64
2022/08/25 02:28:38;;;;;;;5.45;5.05;;;;;;;;;;1653641;29;22383;-64
2022/08/25 02:29:30;;;;;;;4.80;4.32;;;;;;;;;;1654871;29;21623;-65
2022/08/25 02:30:22;;;;;;;9.93;4.70;;;;;;;;;;1658630;29;21609;-65
2022/08/25 02:31:15;;;;;;;5.55;4.53;;;;;;;;;;1656817;29;22377;-64
2022/08/25 02:32:07;;;;;;;4.93;4.63;;;;;;;;;;1656063;29;22235;-64
2022/08/25 02:32:59;;;;;;;5.97;4.35;;;;;;;;;;1654887;29;21601;-64
2022/08/25 02:33:52;;;;;;;6.40;4.70;;;;;;;;;;1655553;29;21659;-64
2022/08/25 02:34:44;;;;;;;5.30;4.78;;;;;;;;;;1654799;29;22031;-64
2022/08/25 02:35:36;;;;;;;4.47;4.18;;;;;;;;;;1655392;29;22040;-64
2022/08/25 02:36:28;;;;;;;6.65;5.30;;;;;;;;;;1656597;29;22026;-64
2022/08/25 02:37:20;;;;;;;5.30;4.80;;;;;;;;;;1656237;29;21631;-64
2022/08/25 02:38:12;;;;;;;5.15;4.65;;;;;;;;;;1654924;29;21644;-64
2022/08/25 02:39:05;;;;;;;5.38;4.95;;;;;;;;;;1658297;29;22454;-64
2022/08/25 02:39:56;;;;;;;5.10;4.60;;;;;;;;;;1656318;29;22540;-64
2022/08/25 02:40:51;;;;;;;4.97;4.57;;;;;;;;;;1654594;29;21994;-64
2022/08/25 02:41:42;;;;;;;5.75;5.18;;;;;;;;;;1654377;29;22081;-64
2022/08/25 02:42:34;;;;;;;12.07;4.97;;;;;;;;;;1656448;29;21649;-64
2022/08/25 02:43:27;;;;;;;4.97;4.47;;;;;;;;;;1654932;29;21767;-64
2022/08/25 02:44:19;;;;;;;4.70;4.30;;;;;;;;;;1653642;29;22067;-64
2022/08/25 02:45:10;;;;;;;4.78;4.38;;;;;;;;;;1657717;29;22083;-64
2022/08/25 02:46:02;;;;;;;5.25;4.85;;;;;;;;;;1655058;29;22157;-64
2022/08/25 02:46:54;;;;;;;5.78;5.03;;;;;;;;;;1656230;29;21966;-64
2022/08/25 02:47:46;;;;;;;5.40;5.00;;;;;;;;;;1659115;29;21656;-64
2022/08/25 02:48:39;;;;;;;5.45;5.05;;;;;;;;;;1654946;29;21682;-64
2022/08/25 02:49:31;;;;;;;6.55;4.53;;;;;;;;;;1658861;29;21576;-64
2022/08/25 02:50:25;;;;;;;7.82;5.15;;;;;;;;;;1656635;29;21634;-64
2022/08/25 02:51:16;;;;;;;4.97;4.65;;;;;;;;;;1656585;29;21624;-64
2022/08/25 02:52:08;;;;;;;4.63;4.25;;;;;;;;;;1657309;29;23487;-64
2022/08/25 02:52:59;;;;;;;5.07;4.78;;;;;;;;;;1654944;29;21602;-64
2022/08/25 02:53:53;;;;;;;5.43;4.88;;;;;;;;;;1656257;29;21970;-64
2022/08/25 02:54:44;;;;;;;5.30;4.80;;;;;;;;;;1656319;29;23935;-64
2022/08/25 02:55:36;;;;;;;5.38;4.97;;;;;;;;;;1655359;29;22491;-64
2022/08/25 02:56:29;;;;;;;5.43;5.03;;;;;;;;;;1657465;29;21615;-64
2022/08/25 02:57:21;;;;;;;6.80;4.35;;;;;;;;;;1655258;29;21642;-64
2022/08/25 02:58:13;;;;;;;5.32;4.90;;;;;;;;;;1655431;29;21642;-65
2022/08/25 02:59:05;;;;;;;7.00;4.78;;;;;;;;;;1658781;29;22294;-65
2022/08/25 02:59:56;;;;;;;4.47;4.07;;;;;;;;;;1656558;29;22254;-64
2022/08/25 03:00:49;;;;;;;4.65;4.35;;;;;;;;;;1656876;29;22400;-64
2022/08/25 03:01:40;;;;;;;4.97;4.57;;;;;;;;;;1653508;29;21606;-64
2022/08/25 03:02:33;;;;;;;5.38;4.97;;;;;;;;;;1657858;29;21881;-64
2022/08/25 03:03:24;;;;;;;4.45;4.15;;;;;;;;;;1655921;29;21655;-64
2022/08/25 03:04:17;;;;;;;5.75;4.88;;;;;;;;;;1657719;29;22883;-64
2022/08/25 03:05:10;;;;;;;5.35;4.95;;;;;;;;;;1655890;29;21762;-64
2022/08/25 03:06:03;;;;;;;3.85;3.65;;;;;;;;;;1654395;29;22300;-64
2022/08/25 03:06:54;;;;;;;5.70;4.78;;;;;;;;;;1656253;29;21634;-64
2022/08/25 03:07:46;;;;;;;5.00;4.68;;;;;;;;;;1656180;29;21668;-64
2022/08/25 03:08:38;;;;;;;4.55;4.25;;;;;;;;;;1655240;29;21658;-64
2022/08/25 03:09:32;;;;;;;5.22;4.72;;;;;;;;;;1657633;29;21601;-64
2022/08/25 03:10:23;;;;;;;5.22;4.82;;;;;;;;;;1656316;29;22401;-64
2022/08/25 03:11:14;;;;;;;5.00;4.60;;;;;;;;;;1654897;29;21716;-64
2022/08/25 03:12:08;;;;;;;4.85;4.00;;;;;;;;;;1657361;29;21623;-64
2022/08/25 03:12:59;;;;;;;6.55;4.40;;;;;;;;;;1658919;29;22086;-64
2022/08/25 03:13:51;;;;;;;4.85;4.38;;;;;;;;;;1653946;29;22626;-62
2022/08/25 03:14:43;;;;;;;4.30;4.00;;;;;;;;;;1657248;29;22018;-64
2022/08/25 03:15:36;;;;;;;8.48;4.93;;;;;;;;;;1657342;29;21612;-64
2022/08/25 03:16:27;;;;;;;4.78;4.47;;;;;;;;;;1654869;29;21816;-64
2022/08/25 03:17:20;;;;;;;5.05;4.75;;;;;;;;;;1657753;29;21665;-65
2022/08/25 03:18:11;;;;;;;5.93;4.60;;;;;;;;;;1657132;29;22560;-64
2022/08/25 03:19:04;;;;;;;5.57;4.50;;;;;;;;;;1647996;29;21709;-64
2022/08/25 03:19:56;;;;;;;5.63;4.57;;;;;;;;;;1646539;29;21758;-65
2022/08/25 03:20:48;;;;;;;5.93;4.72;;;;;;;;;;1654297;29;21903;-64
2022/08/25 03:21:39;;;;;;;4.93;4.53;;;;;;;;;;1654497;29;21845;-65
2022/08/25 03:22:32;;;;;;;5.55;4.38;;;;;;;;;;1655595;29;21593;-65
2022/08/25 03:23:23;;;;;;;5.43;4.95;;;;;;;;;;1654275;29;21606;-64
2022/08/25 03:24:15;;;;;;;4.32;4.05;;;;;;;;;;1652572;29;21631;-65
2022/08/25 03:27:29;;;;;;;7.97;4.65;;;;;;;;;;1653603;29;21592;-64
2022/08/25 03:28:21;;;;;;;4.43;4.10;;;;;;;;;;1656762;29;21616;-65
2022/08/25 03:29:12;;;;;;;6.55;4.78;;;;;;;;;;1656135;29;21621;-64
2022/08/25 03:30:07;;;;;;;9.48;4.68;;;;;;;;;;1654764;29;21848;-62
2022/08/25 03:31:00;;;;;;;4.63;4.28;;;;;;;;;;1657359;29;22393;-63
2022/08/25 03:31:54;;;;;;;5.00;4.45;;;;;;;;;;1654902;29;22039;-63
2022/08/25 03:32:45;;;;;;;4.78;4.45;;;;;;;;;;1654545;29;21582;-63
2022/08/25 03:33:38;;;;;;;7.60;4.75;;;;;;;;;;1657283;29;21678;-63
2022/08/25 03:34:30;;;;;;;4.80;4.50;;;;;;;;;;1657374;29;22147;-63
2022/08/25 03:35:22;;;;;;;5.38;4.85;;;;;;;;;;1655414;29;21844;-64
2022/08/25 03:36:15;;;;;;;7.75;4.10;;;;;;;;;;1657385;29;21606;-63
2022/08/25 03:37:07;;;;;;;4.88;4.53;;;;;;;;;;1658465;29;22169;-63
2022/08/25 03:38:00;;;;;;;5.25;4.45;;;;;;;;;;1655368;29;22493;-64
2022/08/25 03:38:52;;;;;;;5.03;4.32;;;;;;;;;;1658788;29;21814;-63
2022/08/25 03:39:44;;;;;;;4.60;4.30;;;;;;;;;;1657462;29;21675;-63
2022/08/25 03:40:37;;;;;;;5.78;4.32;;;;;;;;;;1655385;29;21634;-63
2022/08/25 03:41:32;;;;;;;5.65;4.70;;;;;;;;;;1655564;29;21714;-64
2022/08/25 03:42:24;;;;;;;6.32;4.40;;;;;;;;;;1656223;29;21751;-63
2022/08/25 03:43:16;;;;;;;4.53;4.13;;;;;;;;;;1655817;29;21820;-64
2022/08/25 03:44:08;;;;;;;4.53;4.03;;;;;;;;;;1655456;29;21675;-63
2022/08/25 03:45:02;;;;;;;7.13;4.95;;;;;;;;;;1655710;29;21841;-65
2022/08/25 03:45:54;;;;;;;4.72;4.20;;;;;;;;;;1654730;29;22053;-63
2022/08/25 03:46:49;;;;;;;5.95;5.35;;;;;;;;;;1656571;29;21628;-63
2022/08/25 03:47:41;;;;;;;6.53;4.78;;;;;;;;;;1656150;29;21629;-63
2022/08/25 03:48:32;;;;;;;6.80;4.90;;;;;;;;;;1655029;29;21702;-64
2022/08/25 03:49:24;;;;;;;6.93;4.32;;;;;;;;;;1654059;29;22589;-65
2022/08/25 03:50:18;;;;;;;4.85;4.32;;;;;;;;;;1656220;29;21642;-64
2022/08/25 03:51:10;;;;;;;5.63;4.85;;;;;;;;;;1654752;29;21840;-64
2022/08/25 03:52:02;;;;;;;10.48;5.00;;;;;;;;;;1654825;29;21755;-64
2022/08/25 03:52:56;;;;;;;5.95;4.53;;;;;;;;;;1656551;29;22306;-64
2022/08/25 03:53:47;;;;;;;5.30;4.80;;;;;;;;;;1653326;29;22221;-64
2022/08/25 03:54:40;;;;;;;7.35;4.57;;;;;;;;;;1656190;29;21605;-64
2022/08/25 03:55:31;;;;;;;4.28;3.92;;;;;;;;;;1656140;29;22505;-64
2022/08/25 03:56:26;;;;;;;5.75;4.60;;;;;;;;;;1652618;29;21624;-64
2022/08/25 03:57:19;;;;;;;17.77;5.47;;;;;;;;;;1654983;29;22053;-64
2022/08/25 03:58:12;;;;;;;6.90;4.70;;;;;;;;;;1657116;29;21579;-64
2022/08/25 03:59:03;;;;;;;5.43;4.72;;;;;;;;;;1655771;29;22490;-64
2022/08/25 03:59:55;;;;;;;6.15;4.93;;;;;;;;;;1655244;29;21846;-64
2022/08/25 04:00:47;;;;;;;8.05;4.78;;;;;;;;;;1657029;29;21668;-64
2022/08/25 04:01:41;;;;;;;5.50;5.07;;;;;;;;;;1654807;29;22406;-64
2022/08/25 04:02:32;;;;;;;5.20;4.75;;;;;;;;;;1654376;29;22405;-64
2022/08/25 04:03:24;;;;;;;6.53;4.93;;;;;;;;;;1653759;29;22458;-64
2022/08/25 04:04:16;;;;;;;6.95;4.68;;;;;;;;;;1655384;29;21709;-64
2022/08/25 04:05:09;;;;;;;5.20;4.70;;;;;;;;;;1654597;29;21812;-65
2022/08/25 04:06:01;;;;;;;5.22;4.72;;;;;;;;;;1656043;29;21602;-63
2022/08/25 04:06:53;;;;;;;5.07;4.68;;;;;;;;;;1656336;29;21946;-64
2022/08/25 04:07:45;;;;;;;10.55;5.88;;;;;;;;;;1654768;29;21763;-63
2022/08/25 04:08:37;;;;;;;5.05;4.53;;;;;;;;;;1656037;29;21603;-63
2022/08/25 04:09:30;;;;;;;5.32;4.80;;;;;;;;;;1656290;29;22655;-64
2022/08/25 04:10:22;;;;;;;4.80;4.45;;;;;;;;;;1654746;29;21775;-64
2022/08/25 04:11:17;;;;;;;11.43;4.70;;;;;;;;;;1655218;29;21932;-64
2022/08/25 04:12:10;;;;;;;5.57;4.65;;;;;;;;;;1657358;29;22337;-64
2022/08/25 04:13:02;;;;;;;4.90;4.50;;;;;;;;;;1649791;29;22203;-64
2022/08/25 04:13:57;;;;;;;5.07;4.68;;;;;;;;;;1654728;29;22627;-64
2022/08/25 04:14:49;;;;;;;9.82;5.35;;;;;;;;;;1656147;29;21595;-64
2022/08/25 04:15:42;;;;;;;9.95;4.40;;;;;;;;;;1655464;29;21586;-64
2022/08/25 04:16:34;;;;;;;4.68;4.28;;;;;;;;;;1655026;29;21688;-64
2022/08/25 04:17:27;;;;;;;4.38;4.07;;;;;;;;;;1656430;29;22372;-64
2022/08/25 04:18:18;;;;;;;5.45;4.95;;;;;;;;;;1655090;29;21604;-66
2022/08/25 04:19:11;;;;;;;9.02;5.18;;;;;;;;;;1654965;29;21625;-64
2022/08/25 04:20:03;;;;;;;6.40;4.70;;;;;;;;;;1655786;29;21912;-64
2022/08/25 04:21:03;;;;;;;4.88;4.47;;;;;;;;;;1655123;29;22420;-64
2022/08/25 04:21:54;;;;;;;5.20;4.65;;;;;;;;;;1657828;29;21679;-63
2022/08/25 04:22:46;;;;;;;4.80;4.50;;;;;;;;;;1655802;29;21655;-64
2022/08/25 04:23:39;;;;;;;9.65;4.63;;;;;;;;;;1655930;29;22271;-63
2022/08/25 04:24:32;;;;;;;4.70;4.40;;;;;;;;;;1656156;29;22450;-64
2022/08/25 04:25:23;;;;;;;11.43;4.80;;;;;;;;;;1651704;29;21739;-63
2022/08/25 04:26:20;;;;;;;5.03;4.63;;;;;;;;;;1653481;29;22297;-64
2022/08/25 04:27:13;;;;;;;5.20;4.38;;;;;;;;;;1649772;29;21624;-63
2022/08/25 04:28:06;;;;;;;9.88;5.00;;;;;;;;;;1654585;29;21908;-63
2022/08/25 04:29:00;;;;;;;4.32;4.03;;;;;;;;;;1654266;29;21663;-63
2022/08/25 04:29:52;;;;;;;5.20;4.60;;;;;;;;;;1649811;29;22163;-63
2022/08/25 04:30:43;;;;;;;5.78;5.10;;;;;;;;;;1654745;29;22662;-64
2022/08/25 04:31:39;;;;;;;4.22;3.92;;;;;;;;;;1654950;29;21738;-64
2022/08/25 04:32:31;;;;;;;10.43;4.72;;;;;;;;;;1650739;29;21889;-63
2022/08/25 04:33:23;;;;;;;9.52;5.30;;;;;;;;;;1653601;29;21659;-63
2022/08/25 04:34:14;;;;;;;5.43;5.03;;;;;;;;;;1653644;29;22263;-64
2022/08/25 04:35:07;;;;;;;4.78;4.40;;;;;;;;;;1651077;29;22730;-64
2022/08/25 04:35:59;;;;;;;4.85;4.45;;;;;;;;;;1655204;29;22813;-63
2022/08/25 04:36:51;;;;;;;5.22;4.75;;;;;;;;;;1655970;29;22520;-63
2022/08/25 04:37:42;;;;;;;5.07;4.57;;;;;;;;;;1655876;29;21878;-63
2022/08/25 04:38:35;;;;;;;5.13;4.63;;;;;;;;;;1656206;29;21615;-63
2022/08/25 04:39:26;;;;;;;5.88;5.38;;;;;;;;;;1657307;29;22603;-65
2022/08/25 04:40:19;;;;;;;4.70;4.40;;;;;;;;;;1657445;29;22720;-65
2022/08/25 04:41:13;;;;;;;5.03;4.65;;;;;;;;;;1658157;29;21752;-64
2022/08/25 04:42:06;;;;;;;6.95;4.60;;;;;;;;;;1655849;29;21594;-64
2022/08/25 04:42:58;;;;;;;5.90;4.93;;;;;;;;;;1654244;29;22159;-64
2022/08/25 04:43:51;;;;;;;5.18;4.78;;;;;;;;;;1654961;29;21615;-64
2022/08/25 04:44:43;;;;;;;11.20;4.50;;;;;;;;;;1658374;29;22115;-64
2022/08/25 04:45:38;;;;;;;8.05;4.78;;;;;;;;;;1656588;29;21581;-65
2022/08/25 04:46:31;;;;;;;7.07;4.72;;;;;;;;;;1656570;29;22083;-64
2022/08/25 04:47:24;;;;;;;6.68;4.70;;;;;;;;;;1657139;29;22399;-64
2022/08/25 04:48:16;;;;;;;5.20;4.80;;;;;;;;;;1655588;29;22082;-64
2022/08/25 04:49:09;;;;;;;5.85;4.60;;;;;;;;;;1655556;29;21821;-63
2022/08/25 04:50:00;;;;;;;4.65;4.35;;;;;;;;;;1658326;29;22463;-63
2022/08/25 04:50:53;;;;;;;15.15;5.10;;;;;;;;;;1655193;29;21755;-63
2022/08/25 04:51:45;;;;;;;8.07;5.10;;;;;;;;;;1648415;29;21935;-63
2022/08/25 04:52:37;;;;;;;5.35;4.68;;;;;;;;;;1648868;29;22432;-64
2022/08/25 04:53:29;;;;;;;9.73;5.03;;;;;;;;;;1653863;29;21722;-63
2022/08/25 04:54:21;;;;;;;6.72;4.97;;;;;;;;;;1654002;29;21648;-64
2022/08/25 04:55:12;;;;;;;5.07;4.55;;;;;;;;;;1657173;29;21753;-63
2022/08/25 04:56:07;;;;;;;4.85;4.55;;;;;;;;;;1655542;29;21655;-63
2022/08/25 04:56:58;;;;;;;5.68;4.97;;;;;;;;;;1654272;29;22163;-63
2022/08/25 04:57:50;;;;;;;7.53;4.65;;;;;;;;;;1649884;29;21642;-63
2022/08/25 04:58:45;;;;;;;6.43;4.18;;;;;;;;;;1653497;29;21644;-63
2022/08/25 04:59:38;;;;;;;6.57;4.97;;;;;;;;;;1654032;29;21619;-63
2022/08/25 05:00:29;;;;;;;5.72;5.28;;;;;;;;;;1656856;29;21649;-63
2022/08/25 05:01:23;;;;;;;5.65;5.15;;;;;;;;;;1657141;29;22523;-63
2022/08/25 05:02:14;;;;;;;5.50;5.03;;;;;;;;;;1653416;29;21927;-64
2022/08/25 05:03:07;;;;;;;5.18;4.82;;;;;;;;;;1655078;29;22195;-64
2022/08/25 05:04:00;;;;;;;7.00;5.43;;;;;;;;;;1655758;29;22435;-63
2022/08/25 05:04:55;;;;;;;9.75;5.00;;;;;;;;;;1653253;29;21590;-63
2022/08/25 05:05:46;;;;;;;7.80;4.97;;;;;;;;;;1659289;29;21595;-63
2022/08/25 05:06:38;;;;;;;8.70;4.75;;;;;;;;;;1656023;29;22393;-64
2022/08/25 05:07:29;;;;;;;5.85;4.57;;;;;;;;;;1656333;29;22042;-63
2022/08/25 05:08:22;;;;;;;6.03;4.60;;;;;;;;;;1655969;29;21937;-63
2022/08/25 05:09:13;;;;;;;5.75;5.25;;;;;;;;;;1655816;29;21719;-63
2022/08/25 05:10:07;;;;;;;5.15;4.65;;;;;;;;;;1655331;29;22447;-63
2022/08/25 05:10:58;;;;;;;5.47;4.95;;;;;;;;;;1654006;29;21660;-63
2022/08/25 05:11:50;;;;;;;4.47;4.13;;;;;;;;;;1657472;29;21621;-64
2022/08/25 05:12:42;;;;;;;11.85;4.80;;;;;;;;;;1657125;29;22356;-64
2022/08/25 05:13:36;;;;;;;16.15;4.70;;;;;;;;;;1654042;29;21948;-64
2022/08/25 05:14:29;;;;;;;8.63;4.60;;;;;;;;;;1655960;29;21589;-63
2022/08/25 05:16:31;;;;;;;5.68;5.13;;;;;;;;;;1655283;29;21615;-63
2022/08/25 05:17:23;;;;;;;15.48;4.97;;;;;;;;;;1657822;29;22250;-63
2022/08/25 05:18:15;;;;;;;5.38;4.97;;;;;;;;;;1654870;29;22055;-63
2022/08/25 05:19:08;;;;;;;6.20;5.15;;;;;;;;;;1655409;29;22499;-64
2022/08/25 05:19:59;;;;;;;6.57;4.43;;;;;;;;;;1656487;29;21781;-63